Archival Weather

Wadi Al Dawasir

Wadi Al Dawasir, Saudi Arabia (OEWD)

Report from: Sunday, October 1, 2023 10:00 PM +03
Current time: Monday, February 26, 2024 1:11 AM +03

Current weather – Weather history – Daily summaries
Weather forecast

Temperature32.0°C (89.6°F)
Heat index29.8°C (85.6°F)
Dew point-3.0°C (26.6°F)
Winds 10 kts (5.1 m/s, 11.5 mph) East (90°)
Clouds Sky clear
Altimeter29.91 in.Hg (1013 mB)
Relative humidity10 %
Density altitude2,032 ft. (619 m)
Remarks Ceiling and visibility OK
Flight conditions Visual Meteorological Conditions
Raw dataOEWD 011900Z 09010KT CAVOK 32/M03 Q1013
An error has occurred. This application may no longer respond until reloaded. Reload 🗙